x

8452944 - Conimicut Light, Ri (cptr1) Weather Station

4:30 - Sun 26th Feb 2017 All times are EST. -5 hours from GMT.

  • Wind
    23mph, 29mph gusts
  • Sea Temp 44°f
  • Aire Temp 40°f
  • Sea Pressure 1004.5mb
  • 8452944 - Conimicut Light, Ri
  • 8452944 - Conimicut Light, Ri

More Historic Weather Station data

Upgrade to MSW Pro to gain access to the past 30 days of data for over 8000 Wavebouys and Weather Stations around the globe.

Join Pro

Comparision Forecast

View Surf forecast
   
dom 02/26 4:30 23 29 mph 1004.5mb 44f 40f
4:24 18 23 mph 1004.3mb 44f 40f
4:18 20 26 mph 1004mb 44f 41f
4:12 24 32 mph 1003.8mb 44f 41f
4:06 29 40 mph 1003.5mb 44f 41f
4:00 31 36 mph 1003.4mb 44f 41f
3:54 28 36 mph 1003.3mb 44f 41f
3:48 30 33 mph 1003.1mb 45f 41f
3:42 26 31 mph 1002.9mb 45f 42f
3:36 24 31 mph 1002.8mb 46f 42f
3:30 25 33 mph 1002.9mb 46f 42f
3:24 26 30 mph 1002.8mb 46f 42f
3:18 23 26 mph 1002.5mb 46f 42f
3:12 22 26 mph 1002.1mb 47f 42f
3:06 17 24 mph 1002.1mb 47f 43f
3:00 22 28 mph 1002mb 47f 43f
2:54 25 29 mph 1001.7mb 47f 43f
2:48 26 30 mph 1001.7mb 46f 43f
2:42 24 33 mph 1001.7mb 46f 43f
2:36 28 32 mph 1001.2mb 46f 43f
2:30 26 32 mph 1001.2mb 46f 43f
2:24 24 30 mph 1001.3mb 46f 43f
2:18 26 33 mph 1001.4mb 46f 44f
2:12 28 33 mph 1001.1mb 46f 44f
2:06 23 29 mph 1000.8mb 47f 44f
2:00 25 30 mph 1000.5mb 47f 44f
1:54 24 30 mph 1000.3mb 47f 44f
1:48 22 25 mph 999.6mb 47f 44f
1:42 20 24 mph 999.4mb 47f 44f
1:36 23 25 mph 1000.6mb 47f 44f
1:30 21 23 mph 1000.6mb 47f 45f
1:24 18 25 mph 999.7mb 47f 45f
1:18 20 24 mph 1000.3mb 47f 45f
1:12 20 31 mph 999.8mb 47f 45f
1:06 23 26 mph 999.6mb 47f 45f
1:00 23 26 mph 998.6mb 47f 45f
12:54 24 33 mph 999mb 47f 45f
12:48 26 31 mph 999.4mb 47f 46f
12:42 24 32 mph 999mb 47f 46f
12:36 26 32 mph 998.9mb 47f 46f
12:30 29 34 mph 999.4mb 47f 47f
12:24 31 34 mph 999.1mb 47f 47f
12:18 23 29 mph 998.7mb 47f 47f
12:12 21 25 mph 998.7mb 47f 47f
12:06 22 26 mph 998.6mb 47f 48f
12:00 22 24 mph 997.7mb 47f 47f
sáb 02/25 11:54 20 22 mph 997.7mb 47f 48f
11:48 16 21 mph 997.8mb 47f 48f
11:42 15 17 mph 998.3mb 47f 49f
11:36 14 18 mph 998.4mb 47f 48f
11:30 16 22 mph 998.7mb 47f 49f
11:24 21 28 mph 998.6mb 47f 49f
11:18 26 30 mph 998.8mb 47f 49f
11:12 25 29 mph 998.8mb 47f 49f
11:06 26 31 mph 998.8mb 47f 50f
11:00 30 33 mph 997.9mb 46f 48f
10:54 5 8 mph 997.9mb 46f 49f
10:48 9 10 mph 998.4mb 46f 48f
10:42 9
mph
998.6mb 46f 47f
10:36 8 13 mph 998.5mb 46f 47f
10:30 11 13 mph 998.9mb 46f 47f
10:24 13 14 mph 998.8mb 46f 47f
10:18 13 14 mph - - -
10:12 13 14 mph 998.3mb 45f 46f
10:06 14 15 mph 998.5mb 45f 46f
10:00 15 17 mph 998.6mb 45f 46f
9:54 15 16 mph 998.7mb 45f 46f
9:48 14 17 mph 998.7mb 45f 46f
9:42 14 15 mph 999mb 45f 45f
9:36 13 14 mph 998.7mb 45f 45f
9:30 14
mph
998.7mb 45f 45f
9:24 11 13 mph 998.7mb 45f 45f
9:18 11 13 mph 998.7mb 45f 45f
9:12 9 10 mph 998.7mb 45f 45f
9:06 11 13 mph 998.7mb 45f 46f
9:00 13 14 mph 998.6mb 45f 46f
8:54 13
mph
998.6mb 44f 46f
8:48 7 8 mph 998.8mb 44f 45f
8:42 8 10 mph 998.6mb 44f 46f
8:36 11 14 mph 998.4mb 44f 46f
8:30 14
mph
998.3mb 44f 46f
8:24 10 11 mph 998.4mb 44f 46f
8:18 13 14 mph 998.7mb 44f 46f
8:12 11 13 mph 998.8mb 44f 46f
8:06 13 14 mph 999mb 44f 46f
8:00 13 15 mph 999.1mb 44f 46f
7:54 14 15 mph 999.2mb 44f 46f
7:48 15 16 mph 999.4mb 44f 47f
7:42 15 16 mph 999.5mb 44f 47f
7:36 15 16 mph 999.6mb 44f 48f
7:30 15 16 mph 999.5mb 44f 48f
7:24 14 16 mph 999.6mb 44f 48f
7:18 15 16 mph 999.7mb 44f 48f
7:12 15 16 mph 999.8mb 44f 48f
7:06 14 15 mph 999.7mb 44f 48f
7:00 14 16 mph 999.8mb 44f 49f
6:54 15 16 mph 999.8mb 44f 49f
6:48 15
mph
999.7mb 44f 49f
6:42 15 16 mph 999.9mb 44f 48f
6:36 14 15 mph 999.9mb 44f 47f
6:30 13 15 mph 999.7mb 44f 47f
6:24 14 16 mph 999.9mb 44f 49f
6:18 15 16 mph 999.8mb 44f 49f
6:12 14 15 mph 999.9mb 44f 48f
6:06 14 16 mph 999.9mb 43f 49f
6:00 16 22 mph 999.4mb 43f 49f
5:54 20 22 mph 999.2mb 43f 51f
5:48 20 21 mph 999.4mb 43f 51f
5:42 16 18 mph 999.3mb 42f 50f
5:36 15 16 mph 999.6mb 42f 50f
5:30 14 15 mph 1000mb 42f 50f
5:24 10 13 mph 1000.3mb 42f 50f
5:18 10 13 mph 1000.3mb 42f 50f
5:12 11 14 mph 1000.4mb 42f 50f
5:06 14 18 mph 1000.5mb 42f 51f
5:00 15 17 mph 1000.5mb 42f 51f
4:54 16 21 mph 1000.7mb 42f 51f
4:48 17 20 mph 1000.7mb 42f 51f
4:42 16 17 mph 1001mb 42f 51f
4:36 13 14 mph 1001.3mb 43f 52f
4:30 11 14 mph 1001.4mb 43f 52f
4:24 10 14 mph 1001.6mb 43f 50f
4:18 13 14 mph 1001.8mb 44f 50f
4:12 14 20 mph 1001.9mb 44f 51f
4:06 18 20 mph 1002mb 44f 52f
4:00 15 22 mph 1002.2mb 44f 53f
3:54 21 23 mph 1002.2mb 44f 53f
3:48 20 25 mph 1002.3mb 44f 53f
3:42 18 23 mph 1002.5mb 44f 53f
3:36 18 21 mph 1002.8mb 44f 53f
3:30 16 17 mph 1003mb 44f 53f
3:24 11 14 mph 1003.4mb 45f 50f
3:18 10 11 mph 1003.5mb 45f 50f
3:12 10 13 mph 1003.6mb 45f 50f
3:06 10 13 mph 1003.7mb 45f 50f
3:00 9 13 mph 1004mb 45f 49f
2:54 10 13 mph 1004.2mb 45f 49f
2:48 11 13 mph 1004.3mb 45f 49f
2:42 11 14 mph 1004.4mb 45f 49f
2:36 13 14 mph 1004.5mb 45f 48f
2:30 14 16 mph 1004.6mb 45f 49f
2:24 16 17 mph 1004.7mb 45f 49f
2:18 17 18 mph 1004.8mb 45f 50f
2:12 18 20 mph 1004.9mb 45f 50f
2:06 18
mph
1005mb 45f 51f
2:00 17
mph
1005.1mb 45f 51f
1:54 16 17 mph 1005.1mb 45f 51f
1:48 15 16 mph 1005.2mb 45f 50f
1:42 16 17 mph 1005.3mb 45f 51f
1:36 16 18 mph 1005.4mb 45f 52f
1:30 17 20 mph 1005.5mb 45f 52f
1:24 18 20 mph 1005.6mb 44f 51f
1:18 18
mph
1005.7mb 44f 51f
1:12 17
mph
1005.9mb 45f 51f
1:06 14 15 mph 1006mb 45f 51f
1:00 14 17 mph 1006.1mb 45f 51f
12:54 14 16 mph 1006.1mb 45f 52f
12:48 15 17 mph 1006.1mb 45f 52f
12:42 14 17 mph 1006.2mb 45f 52f
12:36 17 18 mph 1006.3mb 45f 52f
12:30 17 18 mph 1006.4mb 46f 52f
12:24 17 20 mph 1006.6mb 46f 52f
12:18 17 18 mph 1006.8mb 46f 51f
12:12 17 18 mph 1006.9mb 46f 50f
12:06 15 16 mph 1006.9mb 46f 50f
12:00 14
mph
1007.1mb 46f 50f
11:54 13 14 mph 1007.2mb 46f 50f
11:48 14 15 mph 1007.4mb 46f 50f
11:42 10 11 mph 1007.5mb 46f 49f
11:36 11
mph
1007.7mb 46f 50f
11:30 11
mph
1007.8mb 47f 50f
11:24 10
mph
1007.9mb 47f 50f
11:18 8 11 mph 1008.1mb 47f 50f
11:12 11
mph
1008.1mb 47f 50f
11:06 8 9 mph 1008.2mb 47f 49f
11:00 7
mph
1008.4mb 47f 49f
10:54 6 7 mph 1008.5mb 46f 49f
10:48 7 8 mph 1008.6mb 46f 50f
10:42 7 9 mph 1008.7mb 46f 49f
10:36 8 9 mph 1008.8mb 46f 49f
10:30 8
mph
1008.8mb 46f 49f
10:24 6 7 mph 1008.9mb 46f 49f
10:18 6 7 mph 1009mb 46f 50f
10:12 5 6 mph 1009.1mb 46f 49f
10:06 3 5 mph 1009.2mb 46f 49f
10:00 2 3 mph 1009.3mb 46f 49f
9:54 3
mph
1009.4mb 46f 49f
9:48 3
mph
1009.5mb 46f 49f
9:42 2 3 mph 1009.7mb 46f 49f
9:36 3 5 mph 1009.7mb 45f 50f
9:30 3 5 mph 1009.8mb 45f 50f
9:24 2 3 mph 1010mb 45f 49f
9:18 1 3 mph 1010.2mb 45f 47f
9:12 2 3 mph 1010.4mb 45f 47f
9:06 3 5 mph 1010.3mb 44f 47f
9:00 5
mph
1010.3mb 44f 47f
8:54 5
mph
1010.3mb 44f 47f
8:48 5
mph
1010.4mb 44f 47f
8:42 5 6 mph 1010.6mb 44f 47f
8:36 6 8 mph 1010.7mb 44f 46f
8:30 8 9 mph 1010.8mb 44f 46f
8:24 8 9 mph 1010.9mb 44f 46f
8:18 8 9 mph 1010.9mb 44f 46f
8:12 9 10 mph 1010.9mb 44f 46f
8:06 9
mph
1010.9mb 44f 46f
8:00 8 9 mph 1010.9mb 44f 46f
7:54 6 10 mph 1011mb 44f 46f
7:48 10
mph
1011mb 44f 47f
7:42 10
mph
1011.1mb 43f 47f
7:36 9 11 mph 1011.3mb 43f 47f
7:30 10 13 mph 1011.3mb 43f 47f
7:24 10 11 mph 1011.3mb 42f 47f
7:18 10
mph
1011.2mb 42f 46f
7:12 8 9 mph 1011.2mb 42f 46f
7:06 6 8 mph 1011.2mb 42f 46f
7:00 6 7 mph 1011.1mb 42f 46f
6:54 6 7 mph 1010.9mb 42f 46f
6:48 6
mph
1010.9mb 42f 46f
6:42 6 7 mph 1010.8mb 42f 45f
6:36 7 8 mph 1010.8mb 42f 45f
6:30 8 9 mph 1010.8mb 42f 45f
6:24 10 13 mph 1010.8mb 42f 46f
6:18 11 16 mph 1010.7mb 42f 45f
6:12 16 18 mph 1010.7mb 42f 46f
6:06 16 17 mph 1010.7mb 42f 46f
6:00 13 14 mph 1010.8mb 42f 46f
5:54 8 9 mph 1010.6mb 42f 46f
5:48 9 11 mph 1010.6mb 42f 46f
5:42 11 14 mph 1010.7mb 42f 46f
5:36 15
mph
1010.8mb 42f 46f
5:30 14
mph
1010.8mb 42f 46f
5:24 10 11 mph 1011mb 42f 45f
5:18 9 11 mph 1010.9mb 42f 45f
5:12 9 11 mph 1011.1mb 42f 45f
5:06 11
mph
1011.1mb 42f 45f
5:00 11
mph
1011.1mb 42f 45f
4:54 11
mph
1011.1mb 42f 46f
4:48 8 9 mph 1011.1mb 42f 46f
4:42 7 8 mph 1011.2mb 43f 46f
4:36 6 7 mph 1011.2mb 43f 46f
4:30 7 8 mph 1011.3mb 43f 46f
4:24 7 8 mph 1011.4mb 43f 46f
4:18 8
mph
1011.4mb 43f 46f
4:12 9 10 mph 1011.4mb 43f 46f
4:06 9
mph
1011.3mb 43f 47f
4:00 9
mph
1011.3mb 43f 47f
3:54 9
mph
1011.3mb 43f 47f
3:48 8 9 mph 1011.3mb 43f 47f
3:42 9 11 mph 1011.4mb 44f 47f
3:36 10 11 mph 1011.4mb 44f 47f
3:30 10 11 mph 1011.4mb 44f 46f
3:24 9
mph
1011.4mb 44f 46f
3:18 8 9 mph 1011.5mb 44f 46f
3:12 6 7 mph 1011.4mb 44f 46f
3:06 6 7 mph 1011.4mb 44f 46f
3:00 7 8 mph 1011.4mb 44f 46f
2:54 6 8 mph 1011.5mb 44f 46f
2:48 8 10 mph 1011.5mb 44f 46f
2:42 10 11 mph 1011.5mb 44f 47f
2:36 11 13 mph 1011.6mb 44f 47f
2:30 10 11 mph 1011.7mb 44f 47f
2:24 9 10 mph 1011.7mb 44f 47f
2:18 9 11 mph 1011.8mb 44f 47f
2:12 11 13 mph 1011.8mb 44f 47f
2:06 10 11 mph 1011.8mb 44f 47f
2:00 8 10 mph 1011.9mb 44f 47f
1:54 9 10 mph 1011.9mb 44f 47f
1:48 9 11 mph 1011.9mb 44f -
1:42 11 14 mph 1011.9mb 44f -
1:36 13 14 mph 1011.8mb 44f -
1:30 8 10 mph 1011.8mb 44f 46f
1:24 8 9 mph 1011.7mb 44f 47f
1:18 8 13 mph 1011.8mb 44f 46f
1:12 11 13 mph 1011.8mb 44f 46f
1:06 9 10 mph 1011.8mb 44f 46f
1:00 8 9 mph 1011.8mb 44f 46f
12:54 8 9 mph 1011.8mb 44f 46f
12:48 9 11 mph 1011.8mb - -
12:42 10
mph
1011.9mb - -
12:36 7 8 mph 1011.9mb - -
12:30 6 7 mph 1012mb 44f 45f
12:24 6 7 mph 1012mb 45f 45f
12:18 6 7 mph 1012.1mb 45f 45f
12:12 5 8 mph 1012.1mb 45f 46f
12:06 8 9 mph 1012.1mb 45f 46f
12:00 8 9 mph 1012.2mb 45f 46f
vie 02/24 11:54 8 9 mph 1012.2mb 45f 46f
11:48 8
mph
1012.2mb 45f 46f
11:42 8 9 mph 1012.1mb 45f 46f
11:36 8 10 mph 1012.1mb 45f 46f
11:30 10
mph
1012.2mb 45f 46f
11:24 9 10 mph 1012.2mb 45f 46f
11:18 10
mph
1012.2mb 45f 45f
11:12 9
mph
1012.2mb 45f 45f
11:06 10 11 mph 1012.2mb 45f 46f
11:00 11
mph
1012.3mb 44f 46f
10:54 11 13 mph 1012.4mb 44f 46f
10:48 10 11 mph 1012.5mb 44f 46f
10:42 9
mph
1012.5mb 44f 46f
10:36 8
mph
1012.6mb 44f 46f
10:30 7 9 mph 1012.6mb 43f 46f
10:24 8 9 mph 1012.7mb 43f 46f
10:18 9
mph
1012.8mb 43f 46f
10:12 9
mph
1012.8mb 43f 46f
10:06 8 10 mph 1012.9mb 43f 47f
10:00 8 10 mph 1012.9mb 43f 46f
9:54 8 10 mph 1012.8mb 42f 46f
9:48 9 10 mph 1012.7mb 43f 46f
9:42 10 11 mph 1012.7mb 43f 46f
9:36 10 11 mph 1012.7mb 43f 46f
9:30 11 13 mph 1012.6mb 43f 46f
9:24 10 11 mph 1012.7mb 43f 46f
9:18 11
mph
1012.7mb 43f 46f
9:12 10 11 mph 1012.7mb 43f 45f
9:06 9 10 mph 1012.8mb 43f 46f
9:00 8
mph
1012.7mb 43f 45f
8:54 8 9 mph 1012.8mb 43f 45f
8:48 9 10 mph 1012.8mb 43f 45f
8:42 8 9 mph 1012.9mb 43f 44f
8:36 8 9 mph 1013mb 43f 45f
8:30 8 9 mph 1013.1mb 43f 45f
8:24 7 8 mph 1013.1mb 43f 45f
8:18 8
mph
1013.2mb 43f 44f
8:12 7 9 mph 1013.2mb 43f 44f
8:06 8
mph
1013.2mb 43f 45f
8:00 8 10 mph 1013.1mb 43f 44f
7:54 9 10 mph 1013.2mb 43f 44f
7:48 10 11 mph 1013.1mb 43f 44f
7:42 10 13 mph 1013.2mb 43f 45f
7:36 11
mph
1013.2mb 43f 44f
7:30 11 13 mph 1013.2mb 43f 45f
7:24 11 13 mph 1013.2mb 42f 45f
7:18 13
mph
1013.2mb 42f 45f
7:12 11 13 mph 1013.2mb 42f 46f
7:06 11
mph
1013.3mb 42f 45f
7:00 11
mph
1013.2mb 42f 45f
6:54 9 10 mph 1013.2mb 42f 45f
6:48 10 11 mph 1013.2mb 42f 45f
6:42 8 9 mph 1013.3mb 42f 45f
6:36 8 11 mph 1013.4mb 42f 45f
6:30 11 14 mph 1013.3mb 42f 46f
6:24 10 13 mph 1013.3mb 42f 46f
6:18 8 11 mph 1013.3mb 42f 45f
6:12 6 8 mph 1013.3mb 42f 44f
6:06 9 11 mph 1013.2mb 42f 44f
6:00 13 15 mph 1013mb 42f 44f
5:54 14 16 mph 1012.9mb 42f 45f
5:48 16 18 mph 1012.9mb - 45f
5:42 18 20 mph 1012.9mb - 46f
5:36 20 21 mph 1012.8mb - 46f
5:30 20 21 mph 1012.7mb 42f 46f
5:24 18 20 mph 1012.7mb 42f 47f
5:18 16 17 mph 1012.8mb 42f 47f
5:12 16
mph
1012.8mb 42f 47f
5:06 16
mph
1012.8mb 42f 48f
5:00 16
mph
1012.7mb 42f 48f
4:54 15 16 mph 1012.7mb 43f 47f
4:48 16 17 mph 1012.7mb 43f 47f
4:42 15 16 mph 1012.7mb 43f 47f
4:36 14 15 mph 1012.7mb 43f 48f
4:30 14 15 mph 1012.6mb 42f 49f
4:24 9 14 mph 1012.6mb 42f 50f
4:18 14 20 mph 1012.5mb 42f 50f
4:12 21 22 mph 1012.3mb 42f 51f
4:06 21 22 mph 1012.2mb 42f 51f
4:00 20 22 mph 1012.2mb 42f 51f
3:54 20 21 mph 1012.2mb 42f 51f
3:48 18 20 mph 1012.3mb 42f 50f
3:42 20 24 mph 1012.3mb 42f 51f
3:36 24 26 mph 1012.3mb 42f 52f
3:30 25 29 mph 1012.3mb 42f 53f
3:24 26 28 mph 1012.3mb 42f 53f
3:18 22 24 mph 1012.4mb 42f 52f
3:12 22 24 mph 1012.4mb 42f 52f
3:06 23 24 mph 1012.4mb 42f 53f
3:00 23 24 mph 1012.4mb 42f 54f
2:54 23 26 mph 1012.4mb 42f 54f
2:48 25 26 mph 1012.3mb 42f 54f
2:42 17 22 mph 1012.4mb 42f 51f
2:36 18 26 mph 1012.4mb 42f 51f
2:30 20 23 mph 1012.4mb 42f 52f
2:24 21 22 mph 1012.5mb 42f 53f
2:18 20 22 mph 1012.5mb 42f 52f
2:12 21 25 mph 1012.5mb 42f 53f
2:06 24 25 mph 1012.5mb 42f 53f
2:00 20 24 mph 1012.7mb 42f 52f
1:54 23 25 mph 1012.6mb 42f 52f
1:48 25 28 mph 1012.6mb 42f 53f
1:42 24 26 mph 1012.5mb 42f 53f
1:36 24 26 mph 1012.6mb 42f 53f
1:30 26
mph
1012.6mb 42f 54f
1:24 26
mph
1012.6mb 42f 53f
1:18 14 21 mph 1012.9mb 41f 51f
1:12 17 20 mph 1012.9mb 41f 53f
1:06 15 18 mph 1013mb 41f 53f
1:00 15 17 mph 1013.2mb 41f 54f
12:54 17 20 mph 1013.2mb 41f 53f
12:48 17 18 mph 1013.3mb 42f 54f
12:42 14 16 mph 1013.4mb 42f 55f
12:36 14 15 mph 1013.5mb 42f 54f
12:30 14 17 mph 1013.5mb 42f 54f
12:24 15 20 mph 1013.7mb 42f 54f
12:18 17
mph
1013.7mb 43f 53f
12:12 20 22 mph 1013.8mb 43f 53f
12:06 18 21 mph 1013.8mb 43f 53f
12:00 18 24 mph 1013.9mb 43f 53f
11:54 23 24 mph 1013.9mb 43f 55f
11:48 22 25 mph 1014mb 43f 55f
11:42 22 23 mph 1014.1mb 43f 54f
11:36 20 21 mph 1014.2mb 43f 54f
11:30 18 22 mph 1014.3mb 43f 55f
11:24 18 20 mph 1014.5mb 43f 53f
11:18 17 18 mph 1014.6mb 43f 53f
11:12 17 20 mph 1014.7mb 42f 53f
11:06 17 20 mph 1014.7mb 42f 53f
11:00 17 20 mph 1014.7mb 42f 51f
10:54 17 18 mph 1014.7mb 42f 51f
10:48 16 17 mph 1014.7mb 42f 49f
10:42 14 15 mph 1014.7mb 42f 48f
10:36 13 15 mph 1014.7mb 42f 48f
10:30 14 16 mph 1014.8mb 42f 50f
10:24 14 16 mph 1014.8mb 42f 48f
10:18 14 15 mph 1014.8mb 42f 49f
10:12 14 15 mph 1014.8mb 42f 47f
10:06 14 15 mph 1014.7mb 42f 48f
10:00 14
mph
1014.8mb 42f 47f
9:54 13
mph
1014.8mb 42f 46f
9:48 10
mph
1014.8mb 42f 46f
9:42 8 10 mph 1014.8mb 42f 47f
9:36 10 13 mph 1014.7mb 42f 47f
9:30 11 13 mph 1014.7mb 42f 47f
9:24 13 14 mph 1014.7mb 41f 47f
9:18 13
mph
1014.7mb 41f 47f
9:12 11 13 mph 1014.7mb 41f 46f
9:06 13 14 mph 1014.7mb 41f 46f
9:00 10 11 mph 1014.6mb 41f 46f
8:54 8 10 mph 1014.6mb 41f 46f
8:48 8 10 mph 1014.6mb 41f 46f
8:42 8 11 mph 1014.7mb 41f 46f
8:36 13 15 mph 1014.6mb 41f 45f
8:30 16 20 mph 1014.4mb 41f 45f
8:24 20 21 mph 1014.2mb 41f 45f
8:18 18 20 mph 1014.1mb 41f 45f
8:12 17 18 mph 1014.1mb 41f 45f
8:06 18 20 mph 1014.2mb 41f 45f
8:00 17 18 mph 1014.3mb 41f 45f
7:54 18
mph
1014.3mb 41f 45f
7:48 17
mph
1014.4mb 41f 45f
7:42 16 17 mph 1014.3mb 41f 45f
7:36 15 16 mph 1014.3mb 41f 45f
7:30 15 16 mph 1014.3mb 41f 45f
7:24 14 15 mph 1014.3mb 41f 45f
7:18 13 14 mph 1014.2mb 41f 45f
7:12 10 11 mph 1014.2mb 41f 45f
7:06 10 14 mph 1014.2mb 41f 46f
7:00 13 14 mph 1014.2mb 41f 46f
6:54 11 14 mph 1014.1mb 41f 45f
6:48 10 13 mph 1014mb 41f 46f
6:42 10 14 mph 1013.9mb 41f 46f
6:36 11 13 mph 1013.8mb 41f 47f
6:30 11 14 mph 1013.7mb 41f 47f
6:24 13 15 mph 1013.7mb 41f 45f
6:18 13 15 mph 1013.7mb 41f 46f
6:12 13 14 mph 1013.7mb 41f 46f
6:06 13 14 mph 1013.7mb 41f 48f
6:00 11 13 mph 1013.7mb 41f 47f
5:54 10 11 mph 1013.7mb 41f 46f
5:48 11 14 mph 1013.8mb 41f 47f
5:42 11 13 mph 1013.7mb 41f 46f
5:36 10 11 mph 1013.8mb 41f 45f
5:30 11 13 mph 1013.8mb 41f 45f
5:24 10 13 mph 1013.8mb 41f 45f
5:18 11 13 mph 1013.7mb 41f 44f
5:12 9 13 mph 1013.7mb 41f 44f
5:06 10 11 mph 1013.6mb 41f 44f
5:00 7 10 mph 1013.5mb 41f 44f
4:54 8 10 mph 1013.4mb 41f 44f
4:48 5 9 mph 1013.4mb 41f 44f
4:42 6 9 mph 1013.4mb 41f 44f
4:36 7 9 mph 1013.4mb 41f 44f
4:30 6 9 mph 1013.3mb 41f 44f
4:24 9 11 mph 1013.2mb 41f 44f
4:18 10 14 mph 1013.2mb 41f 44f
4:12 14 17 mph 1013.2mb 41f 44f
4:06 16 17 mph 1013.2mb 41f 44f
4:00 16 18 mph 1013.1mb 41f 44f
3:54 17 18 mph 1013.1mb 41f 45f
3:48 10 13 mph 1013.2mb 41f 44f
3:42 7 13 mph 1013.2mb 41f 44f
3:36 11
mph
1013.2mb 41f 44f
3:30 10 17 mph 1013.1mb 41f 44f
3:24 18 21 mph 1013mb 41f 45f
3:18 20 21 mph 1013mb 41f 45f
3:12 17 20 mph 1012.9mb 41f 46f
3:06 17 18 mph 1012.9mb 41f 46f
3:00 15 16 mph 1012.9mb 41f 46f
2:54 16 17 mph 1012.9mb 41f 46f
2:48 15
mph
1012.8mb 41f 45f
2:42 13 14 mph 1012.9mb 41f 45f
2:36 11 14 mph 1013mb 41f 45f
2:30 13 14 mph 1012.9mb 41f 45f
2:24 11
mph
1013mb 41f 45f
2:18 9 11 mph 1013mb 41f 44f
2:12 10 11 mph 1012.9mb 41f 44f
2:06 10
mph
1012.9mb 41f 44f
2:00 8 10 mph 1013mb 41f 44f
1:54 9 13 mph 1013mb 41f 44f
1:48 13 16 mph 1012.9mb 41f -
1:42 14 15 mph 1012.9mb 41f -
1:36 14 15 mph 1012.9mb 41f -
1:30 14 15 mph 1012.8mb 41f 44f
1:24 14 15 mph 1012.8mb 41f 44f
1:18 14 15 mph 1012.8mb 41f 45f
1:12 13 14 mph 1012.9mb 41f 44f
1:06 13 17 mph 1012.9mb 41f 44f
1:00 15 16 mph 1013mb 41f 45f
12:54 13 14 mph 1013mb 41f 45f
12:48 11 14 mph 1013mb 41f -
12:42 13 14 mph 1012.9mb 41f -
12:36 10 11 mph 1012.8mb 41f -
12:30 10 13 mph 1012.8mb 41f 45f
12:24 10 11 mph 1012.8mb 41f 45f
12:18 9 10 mph 1012.8mb 41f 45f
12:12 8 9 mph 1012.8mb 41f 44f
12:06 6 13 mph 1012.8mb 41f 44f
12:00 13 16 mph 1012.7mb 41f 44f
jue 02/23 11:54 15
mph
1012.5mb 41f 44f
11:48 14 15 mph 1012.5mb 41f 45f
11:42 14
mph
1012.6mb 41f 45f
11:36 13 14 mph 1012.5mb 41f 45f
11:30 13 14 mph 1012.4mb 41f 45f
11:24 14 16 mph 1012.4mb 41f 45f
11:18 15
mph
1012.3mb 41f 44f
11:12 16 17 mph 1012.2mb 41f 45f
11:06 16 17 mph 1012.2mb 41f 44f
11:00 16 17 mph 1012.2mb 41f 44f
10:54 17
mph
1012.2mb 41f 44f
10:48 16 17 mph 1012.1mb 41f 44f
10:42 16 17 mph 1012.2mb 41f 45f
10:36 15 16 mph 1012.3mb 41f 46f
10:30 15
mph
1012.2mb 41f 46f
10:24 14 15 mph 1012.3mb 41f 45f
10:18 11 13 mph 1012.4mb 41f 45f
10:12 10 13 mph 1012.4mb 41f 45f
10:06 11 14 mph 1012.3mb 41f 46f
10:00 13 14 mph 1012.1mb 41f 45f
9:54 11 14 mph 1012.1mb 41f 45f
9:48 11 14 mph 1012mb 41f 45f
9:42 10 13 mph 1012mb 41f 44f
9:36 3 6 mph 1012.1mb 41f 44f
9:30 7 11 mph 1012.1mb 41f 45f
9:24 13 15 mph 1012mb 41f 45f
9:18 16 17 mph 1012mb 41f 46f
9:12 17 18 mph 1012mb 41f 46f
9:06 18 20 mph 1011.9mb 41f 46f
9:00 18 20 mph 1011.7mb 41f 46f
8:54 20
mph
1011.8mb 41f 46f
8:48 18 20 mph 1011.8mb 41f 46f
8:42 20
mph
1011.7mb 41f 46f
8:36 20 21 mph 1011.7mb 41f 46f
8:30 20 21 mph 1011.5mb 41f 46f
8:24 20 21 mph 1011.5mb 41f 46f
8:18 18 20 mph 1011.5mb 41f 46f
8:12 17 18 mph 1011.5mb 41f 47f
8:06 15
mph
1011.5mb 41f 46f
8:00 14 17 mph 1011.6mb 41f 46f
7:54 16 18 mph 1011.3mb 41f 46f
7:48 18 20 mph 1011.3mb 41f 46f
7:42 21 25 mph 1011.3mb 41f 46f
7:36 23 24 mph 1010.5mb 41f 46f
7:30 21 22 mph 1010.8mb 41f 46f
7:24 17 18 mph 1011.1mb 41f 44f
7:18 17 18 mph 1011.3mb 41f 44f
7:12 18 20 mph 1011.4mb 41f 44f
7:06 17 18 mph 1011.4mb 41f 44f
7:00 17
mph
1011.5mb 41f 44f
6:54 15 17 mph 1011.2mb 41f 44f
6:48 17 20 mph 1011.2mb 41f 44f
6:42 18 20 mph 1011mb 41f 44f
6:36 15 18 mph 1010.8mb 41f 43f
6:30 17 18 mph 1010.7mb 41f 43f
6:24 16 17 mph 1010.7mb 41f 43f
6:18 14 18 mph 1010.6mb 41f 43f
6:12 15 17 mph 1010.6mb 41f 43f
6:06 15 16 mph 1010.6mb 41f 43f
6:00 13 14 mph 1010.5mb 41f 43f
5:54 10
mph
1010.4mb 41f 43f
5:48 10 15 mph 1010.4mb 41f 43f
5:42 15 18 mph 1010.1mb 41f 43f
5:36 15 18 mph 1009.9mb 41f 43f
5:30 15 17 mph 1009.7mb 41f 43f
5:24 15 16 mph 1009.6mb 41f 44f
5:18 14 16 mph 1009.5mb 41f 44f
5:12 15 16 mph 1009.4mb 41f 44f
5:06 15 16 mph 1009.2mb 41f 45f
5:00 14 16 mph 1009.2mb 41f 44f
4:54 13 14 mph 1009.1mb 41f 44f
4:48 13 14 mph 1009mb 41f 44f
4:42 13 17 mph 1009mb 41f 44f
4:36 17 18 mph 1008.7mb 41f 45f
4:30 17 21 mph 1008.6mb 41f 45f
4:24 16 20 mph 1008.7mb 41f 46f
4:18 21 22 mph 1008.7mb 41f 47f
4:12 22 23 mph 1008.7mb 41f 47f
4:06 23 24 mph 1008.7mb 41f 47f
4:00 24 25 mph 1008.5mb 41f 47f
3:54 21
mph
1008.7mb 41f 47f
3:48 16 18 mph 1008.8mb 41f 47f
3:42 13 16 mph 1008.7mb 41f 47f
3:36 11 15 mph 1008.6mb 41f 46f
3:30 11 15 mph 1008.7mb 41f 46f
3:24 15 16 mph 1008.7mb 41f 46f
3:18 16 20 mph 1008.8mb 41f 46f
3:12 18 20 mph 1008.8mb 41f 46f
3:06 17 18 mph 1008.8mb 41f 46f
3:00 16 18 mph 1008.9mb 41f 45f
2:54 16 18 mph 1009mb 41f 45f
2:48 16 18 mph 1009mb 40f 45f
2:42 16 18 mph 1009mb 40f 45f
2:36 18 20 mph 1008.9mb 40f 47f
2:30 15 21 mph 1009mb 40f 46f
2:24 16 20 mph 1009mb 40f 47f
2:18 16 17 mph 1009mb 40f 47f
2:12 15 16 mph 1009mb 40f 48f
2:06 16 18 mph 1009mb 40f 47f
2:00 17 21 mph 1009mb 40f 46f
1:54 11 18 mph 1009mb 40f 47f
1:48 14 17 mph 1009.1mb 40f 47f
1:42 15 17 mph 1009.1mb 40f 46f
1:36 13 16 mph 1009.1mb 40f 46f
1:30 17 23 mph 1009.1mb 40f 47f
1:24 22 24 mph 1009.2mb 40f 47f
1:18 23 24 mph 1009.2mb 40f 47f
1:12 22 23 mph 1009.2mb 40f 48f
1:06 18 21 mph 1009.3mb 40f 48f
1:00 17 20 mph 1009.4mb 40f 48f
12:54 14 15 mph 1009.6mb 40f 47f
12:48 10 13 mph 1009.7mb 40f 48f
12:42 11 13 mph 1009.8mb 40f 47f
12:36 11 15 mph 1009.9mb 40f 47f
12:30 14 15 mph 1009.9mb 40f 48f
12:24 11 13 mph 1010mb 40f 48f
12:18 10 11 mph 1010.3mb 40f 47f
12:12 11 15 mph 1010.4mb 40f 47f
12:06 15 17 mph 1010.3mb 40f 47f
12:00 16 17 mph 1010.4mb 40f 49f
11:54 16 17 mph 1010.4mb 40f 49f
11:48 16 17 mph 1010.4mb 40f 49f
11:42 14 20 mph 1010.6mb 40f 47f
11:36 18 20 mph 1010.8mb 40f 49f
11:30 18 20 mph 1011mb 40f 49f
11:24 18 20 mph 1011.1mb 40f 48f
11:18 20 22 mph 1011.2mb 40f 48f
11:12 18 20 mph 1011.3mb 40f 47f
11:06 16 20 mph 1011.4mb 40f 46f
11:00 17 18 mph 1011.5mb 40f 47f
10:54 17
mph
1011.6mb 40f 47f
10:48 16 17 mph 1011.7mb 40f 47f
10:42 16 17 mph 1011.7mb 40f 46f
10:36 16 17 mph 1011.7mb 40f 46f
10:30 16 17 mph 1011.7mb 40f 45f
10:24 16
mph
1011.7mb 40f 45f
10:18 13 15 mph 1011.9mb 40f 44f
10:12 9 10 mph 1012mb 40f 45f
10:06 7 8 mph 1012mb 40f 45f
10:00 3 6 mph 1012mb 40f 44f
9:54 3 6 mph 1012mb 40f 43f
9:48 6 8 mph 1012mb 40f 42f
9:42 8 9 mph 1012.1mb 40f 42f
9:36 9 11 mph 1012.2mb 40f 42f
9:30 10 11 mph 1012.1mb 40f 42f
9:24 10 13 mph 1012.1mb 40f 42f
9:18 11 13 mph 1012.1mb 40f 41f
9:12 11 13 mph 1012.1mb 40f 40f
9:06 11
mph
1012.2mb 40f 40f
9:00 10
mph
1012.2mb 40f 40f
8:54 10 11 mph 1012.2mb 39f 40f
8:48 11
mph
1012.3mb 39f 40f
8:42 9 10 mph 1012.3mb 39f 40f
8:36 8 10 mph 1012.3mb 39f 40f
8:30 9 10 mph 1012.3mb 40f 40f
8:24 10 11 mph 1012.2mb 40f 40f
8:18 10 11 mph 1012.2mb 40f 39f
8:12 11 13 mph 1012.2mb 40f 39f
8:06 11 13 mph 1012.2mb 40f 39f
8:00 11
mph
1012.1mb 40f 39f
7:54 11 13 mph 1012.1mb 40f 40f
7:48 13 14 mph 1012mb 40f 40f
7:42 9 10 mph 1012mb 40f 40f
7:36 10
mph
1011.9mb 40f 40f
7:30 9 10 mph 1011.9mb 40f 39f
7:24 8 10 mph 1011.9mb 40f 39f
7:18 10 11 mph 1011.9mb 40f 39f
7:12 10 11 mph 1011.9mb 39f 39f
7:06 9 10 mph 1011.9mb 39f 39f
7:00 10 11 mph 1011.8mb 39f 39f
6:54 10 11 mph 1011.8mb 39f 39f
6:48 11
mph
1011.7mb 39f 39f
6:42 8 9 mph 1011.7mb 39f 39f
6:36 9
mph
1011.8mb 39f 39f
6:30 9
mph
1011.7mb 39f 39f
6:24 7 8 mph 1011.7mb 39f 39f
6:18 6 7 mph 1011.7mb 39f 39f
6:12 5 7 mph 1011.7mb 39f 39f
6:06 7 8 mph 1011.7mb 39f 39f
6:00 7 8 mph 1011.6mb 39f 39f
5:54 6 7 mph 1011.7mb 39f 39f
5:48 6 7 mph 1011.7mb 39f 39f
5:42 7
mph
1011.7mb 39f 39f
5:36 6 9 mph 1011.7mb 39f 39f
5:30 8 10 mph 1011.6mb 39f 39f
5:24 10
mph
1011.6mb 39f 39f
5:18 6 7 mph 1011.6mb 39f 39f
5:12 6 7 mph 1011.7mb 39f 39f
5:06 7 9 mph 1011.7mb 39f 39f
5:00 8 10 mph 1011.7mb 39f 39f
4:54 10
mph
1011.6mb 39f 39f
4:48 10 11 mph 1011.6mb 39f 39f
3:54 9
mph
1011.7mb 40f 39f
3:48 9
mph
1011.6mb 40f 39f
2:54 8 9 mph 1011.9mb 40f 38f
2:48 8 9 mph 1011.9mb 40f 38f
1:54 13 14 mph 1011.8mb 40f 39f
1:48 14
mph
1011.7mb 40f 39f
12:54 13
mph
1012mb 40f 40f
12:48 13
mph
1012mb 40f 40f
mié 02/22 11:54 3
mph
1012.4mb 40f 40f
11:48 3 6 mph 1012.4mb 40f 40f
10:54 9 10 mph 1012.2mb 41f 40f
10:48 8
mph
1012.2mb 41f 40f
9:54 6 7 mph 1012.3mb 41f 41f
9:48 7 8 mph 1012.4mb 41f 41f
8:54 9 10 mph 1012.7mb 40f 42f
8:48 10 11 mph 1012.7mb 40f 42f
7:54 7 9 mph 1012.4mb 40f 42f
7:48 9 11 mph 1012.4mb 40f 42f
6:54 9
mph
1012.5mb 40f 41f
6:48 9
mph
1012.5mb 40f 41f
5:54 14 15 mph 1012.3mb 40f 43f
5:48 14 15 mph 1012.3mb 40f 43f
4:54 9 10 mph 1012.2mb 40f 45f
4:48 8 9 mph 1012.2mb 40f 44f
3:54 10 11 mph 1011.7mb 39f 45f
3:48 10 11 mph 1011.7mb 39f 45f
2:54 9
mph
1012mb 39f 46f
2:48 8 9 mph 1012.1mb 39f 46f
1:54 6 7 mph 1012.9mb 39f 47f
1:48 6 7 mph 1012.9mb 39f 47f
12:54 5 6 mph 1013.8mb 39f 47f
12:48 6 7 mph 1013.9mb 39f 46f
11:54 3 5 mph 1014.5mb 39f 44f
11:48 5 6 mph 1014.6mb 39f 43f
10:54 6 8 mph 1015.5mb 39f 45f
10:48 7 9 mph 1015.5mb 39f 45f